Time;durP1;ratioP1;P1;durP2;ratioP2;P2;SDS_P1;SDS_P2;PMS_P1;PMS_P2;Temp;Humidity;BMP_temperature;BMP_pressure;BME280_temperature;BME280_humidity;BME280_pressure;Samples;Min_cycle;Max_cycle;Signal;HPM_P1;HPM_P2
2021/11/18 09:13:26;;;;;;;4.90;4.03;;;7.40;99.90;;;;;;7353342;19;20398;31
2021/11/18 10:33:45;;;;;;;5.25;4.03;;;8.10;99.90;;;;;;7352693;19;20321;-79
2021/11/18 16:02:40;;;;;;;4.38;3.03;;;9.10;99.90;;;;;;7358483;19;20321;-80
2021/11/18 16:05:09;;;;;;;4.57;2.80;;;9.10;99.90;;;;;;7353374;19;20324;-80
2021/11/18 16:10:49;;;;;;;4.05;3.20;;;9.10;99.90;;;;;;7356082;19;20332;-80
2021/11/18 16:13:18;;;;;;;4.03;3.13;;;9.20;99.90;;;;;;7364027;19;20436;-81
2021/11/18 16:15:51;;;;;;;7.47;4.13;;;9.20;99.90;;;;;;7368974;19;20324;-81
2021/11/18 16:18:21;;;;;;;3.85;2.92;;;9.20;99.90;;;;;;7365505;19;20863;-82
2021/11/18 16:20:55;;;;;;;3.95;2.95;;;9.10;99.90;;;;;;7385890;19;20400;-82
2021/11/18 16:23:30;;;;;;;3.95;3.08;;;9.20;99.90;;;;;;7259293;19;2004366;-81
2021/11/18 16:25:57;;;;;;;4.13;3.00;;;9.20;99.90;;;;;;7340797;19;20968;-81
2021/11/18 16:31:09;;;;;;;4.45;3.28;;;9.20;99.90;;;;;;7384382;19;20317;-82
2021/11/18 16:33:43;;;;;;;5.73;3.30;;;9.10;99.90;;;;;;7368310;19;20341;-81
2021/11/18 16:36:18;;;;;;;3.22;2.90;;;9.00;99.90;;;;;;7354957;19;20336;-81
2021/11/18 16:38:46;;;;;;;5.53;3.30;;;9.20;99.90;;;;;;7373476;19;20332;-81
2021/11/18 16:41:25;;;;;;;4.82;2.90;;;9.20;99.90;;;;;;7360674;19;20325;-81
2021/11/18 16:44:01;;;;;;;3.27;2.87;;;9.30;99.90;;;;;;7364166;19;20332;-81
2021/11/18 16:46:43;;;;;;;6.72;3.15;;;9.30;99.90;;;;;;7351529;19;20330;-80
2021/11/18 16:55:31;;;;;;;4.87;2.83;;;9.20;99.90;;;;;;7349426;19;20911;-80
2021/11/18 16:58:10;;;;;;;2.85;2.63;;;9.20;99.90;;;;;;7350301;19;20372;-80
2021/11/18 17:01:43;;;;;;;3.92;2.78;;;9.20;99.90;;;;;;7214000;19;2004307;-79
2021/11/18 17:04:35;;;;;;;8.83;3.10;;;9.20;99.90;;;;;;7367104;19;20377;-80
2021/11/18 17:07:10;;;;;;;5.47;3.47;;;9.20;99.90;;;;;;7359333;19;20335;-80
2021/11/18 17:13:13;;;;;;;3.73;2.90;;;9.10;99.90;;;;;;7367058;19;20336;-80
2021/11/18 17:15:48;;;;;;;3.50;2.95;;;9.10;99.90;;;;;;7353009;19;20405;-81
2021/11/18 17:18:25;;;;;;;5.07;2.87;;;9.20;99.90;;;;;;7352401;19;20819;-82
2021/11/18 17:21:09;;;;;;;3.83;3.15;;;9.20;99.90;;;;;;7296216;19;20372;-82
2021/11/18 17:23:50;;;;;;;3.97;2.93;;;9.10;99.90;;;;;;7311669;19;20356;-81
2021/11/18 17:26:20;;;;;;;4.97;2.60;;;9.10;99.90;;;;;;7368921;19;20376;-81
2021/11/18 17:44:03;;;;;;;5.27;3.67;;;9.10;99.90;;;;;;7231720;19;2004615;-81
2021/11/18 17:47:11;;;;;;;3.47;3.17;;;9.00;99.90;;;;;;7345383;19;20332;-82
2021/11/18 17:49:45;;;;;;;2.72;2.50;;;9.10;99.90;;;;;;7272338;19;2004475;-80
2021/11/18 17:52:27;;;;;;;5.30;3.20;;;9.10;99.90;;;;;;7386731;19;20324;-79
2021/11/18 17:55:11;;;;;;;6.72;3.85;;;9.20;99.90;;;;;;7232821;19;2004412;-81
2021/11/18 18:04:04;;;;;;;4.43;3.00;;;9.10;99.90;;;;;;7352119;19;20354;-81
2021/11/18 18:09:57;;;;;;;4.43;2.67;;;9.10;99.90;;;;;;7373228;19;20684;-81
2021/11/18 18:12:36;;;;;;;4.78;2.60;;;9.10;99.90;;;;;;7308291;19;20464;-81
2021/11/18 18:15:09;;;;;;;3.70;2.63;;;8.90;99.90;;;;;;7291278;19;20910;-81
2021/11/18 18:17:37;;;;;;;4.20;2.90;;;8.90;99.90;;;;;;7367412;19;20786;-85
2021/11/18 18:20:06;;;;;;;6.35;3.10;;;8.90;99.90;;;;;;7363620;19;20434;-81
2021/11/18 18:22:34;;;;;;;3.88;2.88;;;8.80;99.90;;;;;;7357641;19;20440;-80
2021/11/18 18:25:04;;;;;;;4.50;2.70;;;8.70;99.90;;;;;;7360121;19;20312;-80
2021/11/18 18:27:33;;;;;;;5.15;3.15;;;8.60;99.90;;;;;;7355982;19;20348;-80
2021/11/18 18:30:01;;;;;;;4.30;3.03;;;8.60;99.90;;;;;;7361876;19;20309;-80
2021/11/18 18:32:30;;;;;;;4.35;3.50;;;8.50;99.90;;;;;;7362333;19;20323;-80
2021/11/18 18:34:57;;;;;;;5.07;3.78;;;8.50;99.90;;;;;;7369456;19;20857;-80
2021/11/18 18:37:31;;;;;;;5.28;3.45;;;8.40;99.90;;;;;;7368202;19;20327;-80
2021/11/18 18:39:59;;;;;;;2.90;2.70;;;8.40;99.90;;;;;;7267330;19;2004403;-80
2021/11/18 18:42:27;;;;;;;8.02;3.50;;;8.40;99.90;;;;;;7366211;19;20328;-80
2021/11/18 18:44:54;;;;;;;7.77;3.60;;;8.30;99.90;;;;;;7364382;19;20330;-79
2021/11/18 18:47:24;;;;;;;3.88;3.30;;;8.30;99.90;;;;;;7363043;19;20316;-80
2021/11/18 18:49:53;;;;;;;4.55;3.35;;;8.30;99.90;;;;;;7355955;19;20325;-79
2021/11/18 18:52:27;;;;;;;5.32;3.33;;;8.20;99.90;;;;;;7364297;19;20317;-80
2021/11/18 18:54:54;;;;;;;5.00;3.63;;;8.20;99.90;;;;;;7358557;19;20348;-79
2021/11/18 18:57:23;;;;;;;5.75;3.25;;;8.10;99.90;;;;;;7363337;19;20977;-79
2021/11/18 18:59:51;;;;;;;4.82;3.72;;;8.10;99.90;;;;;;7362547;19;21807;-79
2021/11/18 19:02:24;;;;;;;3.20;2.88;;;8.10;99.90;;;;;;7360128;19;21227;-82
2021/11/18 19:04:50;;;;;;;4.20;3.67;;;8.00;99.90;;;;;;7369512;19;20413;-79
2021/11/18 19:07:21;;;;;;;4.90;3.43;;;8.00;99.90;;;;;;7365249;19;20312;-80
2021/11/18 19:09:49;;;;;;;5.63;3.85;;;7.90;99.90;;;;;;7346592;19;20771;-81
2021/11/18 19:12:26;;;;;;;3.63;3.22;;;7.90;99.90;;;;;;7358747;19;20828;-81
2021/11/18 19:14:59;;;;;;;5.25;3.58;;;7.90;99.90;;;;;;7352514;19;20347;-80
2021/11/18 19:17:32;;;;;;;4.55;3.72;;;7.90;99.90;;;;;;7358766;19;20332;-81
2021/11/18 19:27:14;;;;;;;4.18;3.50;;;7.80;99.90;;;;;;7402507;19;20372;-79
2021/11/18 19:32:45;;;;;;;4.20;3.70;;;7.80;99.90;;;;;;7264382;19;2004358;-79
2021/11/18 19:35:33;;;;;;;6.38;3.67;;;7.80;99.90;;;;;;7267572;19;2004549;-82
2021/11/18 19:44:28;;;;;;;4.55;3.28;;;7.60;99.90;;;;;;7348729;19;20365;-79
2021/11/18 20:25:02;;;;;;;5.67;4.17;;;7.50;99.90;;;;;;7346790;19;20345;-75
2021/11/18 20:27:44;;;;;;;4.18;3.60;;;7.50;99.90;;;;;;7418474;19;20316;-80
2021/11/18 20:30:15;;;;;;;4.45;3.95;;;7.40;99.90;;;;;;7310171;19;2004420;-79
2021/11/18 20:32:46;;;;;;;5.45;3.80;;;7.50;99.90;;;;;;7394230;19;20402;-80
2021/11/18 20:35:31;;;;;;;5.82;3.83;;;7.40;99.90;;;;;;7392120;19;20443;-78
2021/11/18 20:38:40;;;;;;;5.85;4.05;;;7.50;99.90;;;;;;7308744;19;2004464;-79
2021/11/18 20:41:31;;;;;;;7.13;4.22;;;7.50;99.90;;;;;;7168533;19;2004517;-80
2021/11/18 20:44:14;;;;;;;7.80;4.32;;;7.50;99.90;;;;;;7312477;19;2004464;-79
2021/11/18 20:47:21;;;;;;;5.65;3.83;;;7.50;99.90;;;;;;7394455;19;20361;-80
2021/11/18 20:50:03;;;;;;;4.40;3.50;;;7.50;99.90;;;;;;7239804;19;2004283;-80
2021/11/18 20:52:36;;;;;;;5.38;3.80;;;7.40;99.90;;;;;;7382614;19;20436;-79
2021/11/18 20:55:13;;;;;;;5.30;3.72;;;7.40;99.90;;;;;;7412301;19;20701;-79
2021/11/18 20:57:45;;;;;;;4.00;3.55;;;7.40;99.90;;;;;;7378446;19;20332;-79
2021/11/18 21:00:37;;;;;;;5.30;4.00;;;7.40;99.90;;;;;;7418555;19;20340;-80
2021/11/18 21:03:07;;;;;;;4.20;3.08;;;7.30;99.90;;;;;;7402366;19;20337;-79
2021/11/18 21:05:58;;;;;;;7.10;3.58;;;7.40;99.90;;;;;;7398989;19;20360;-80
2021/11/18 21:08:32;;;;;;;6.33;3.50;;;7.50;99.90;;;;;;7314862;19;2004559;-79
2021/11/18 21:11:21;;;;;;;8.40;4.27;;;7.40;99.90;;;;;;7309734;19;2005405;-79
2021/11/18 21:13:52;;;;;;;4.43;3.67;;;7.40;99.90;;;;;;7392669;19;20321;-79
2021/11/18 21:16:59;;;;;;;3.55;3.22;;;7.40;99.90;;;;;;7365219;19;20312;-79
2021/11/18 21:19:56;;;;;;;5.50;3.60;;;7.40;99.90;;;;;;7395312;19;20388;-80
2021/11/18 21:22:54;;;;;;;4.23;3.57;;;7.20;99.90;;;;;;7319118;19;20357;-80
2021/11/18 21:25:44;;;;;;;5.20;3.30;;;7.30;99.90;;;;;;7332798;19;20340;-79
2021/11/18 21:28:56;;;;;;;6.60;3.63;;;7.30;99.90;;;;;;7362363;19;20345;-80
2021/11/18 21:31:32;;;;;;;4.30;3.40;;;7.30;99.90;;;;;;7351963;19;20361;-80
2021/11/18 21:34:29;;;;;;;5.95;3.50;;;7.40;99.90;;;;;;7357942;19;20348;-80
2021/11/18 21:37:14;;;;;;;4.53;3.40;;;7.40;99.90;;;;;;7386992;19;20380;-80
2021/11/18 21:40:18;;;;;;;3.38;3.00;;;7.40;99.90;;;;;;7314241;19;20502;-79
2021/11/18 21:43:26;;;;;;;6.18;3.38;;;7.10;99.90;;;;;;7280317;19;2004447;-80
2021/11/18 21:46:05;;;;;;;5.10;3.30;;;7.30;99.90;;;;;;7384304;19;20360;-79
2021/11/18 21:48:46;;;;;;;5.68;3.55;;;7.30;99.90;;;;;;7412358;19;20348;-79
2021/11/18 21:51:46;;;;;;;4.50;3.35;;;7.30;99.90;;;;;;7411090;19;20341;-79
2021/11/18 21:58:01;;;;;;;4.72;3.22;;;7.30;99.90;;;;;;7327336;19;20351;-80
2021/11/18 22:01:00;;;;;;;3.63;3.17;;;7.30;99.90;;;;;;7361342;19;20321;-80
2021/11/18 22:04:25;;;;;;;5.40;3.25;;;7.10;99.90;;;;;;7159724;19;2004334;-79
2021/11/18 22:07:33;;;;;;;5.00;3.30;;;7.30;99.90;;;;;;7410644;19;20330;-79
2021/11/18 22:10:07;;;;;;;4.13;3.40;;;7.40;99.90;;;;;;7295007;19;2004388;-80
2021/11/18 22:12:47;;;;;;;4.57;3.50;;;7.40;99.90;;;;;;7408336;19;20361;-81
2021/11/18 22:15:44;;;;;;;4.90;3.60;;;7.40;99.90;;;;;;7415202;19;20345;-81
2021/11/18 22:18:21;;;;;;;4.65;3.58;;;7.40;99.90;;;;;;7297715;19;2004458;-80
2021/11/18 22:21:51;;;;;;;3.53;3.17;;;7.30;99.90;;;;;;7423612;19;20365;-80
2021/11/18 22:24:34;;;;;;;6.03;3.50;;;7.40;99.90;;;;;;7261066;19;2004430;-81
2021/11/18 22:27:58;;;;;;;6.80;3.33;;;7.30;99.90;;;;;;7353842;19;20308;-81
2021/11/18 22:31:44;;;;;;;3.80;3.25;;;7.50;99.90;;;;;;7317106;19;2004467;-80
2021/11/18 22:34:58;;;;;;;4.72;3.30;;;7.50;99.90;;;;;;7410236;19;20311;-80
2021/11/18 22:37:33;;;;;;;5.93;3.50;;;7.60;99.90;;;;;;7415350;19;20356;-80
2021/11/18 22:40:37;;;;;;;3.95;3.35;;;7.50;99.90;;;;;;7417704;19;20364;-81
2021/11/18 22:44:20;;;;;;;5.10;3.33;;;7.60;99.90;;;;;;7366520;19;20336;-81
2021/11/18 22:48:10;;;;;;;5.40;3.65;;;7.60;99.90;;;;;;7418587;19;20382;-80
2021/11/18 22:51:12;;;;;;;4.07;3.13;;;7.60;99.90;;;;;;7417665;19;20360;-81
2021/11/18 22:54:14;;;;;;;6.88;3.20;;;7.60;99.90;;;;;;7381668;19;20317;-80
2021/11/18 22:57:02;;;;;;;4.40;3.42;;;7.40;99.90;;;;;;7410124;19;20340;-81
2021/11/18 22:59:51;;;;;;;5.95;3.25;;;7.70;99.90;;;;;;7361257;19;20760;-81
2021/11/18 23:02:45;;;;;;;4.40;3.13;;;7.60;99.90;;;;;;7417537;19;20360;-81
2021/11/18 23:06:29;;;;;;;4.60;3.40;;;7.70;99.90;;;;;;7260774;19;2005355;-79
2021/11/18 23:09:52;;;;;;;6.53;3.50;;;7.60;99.90;;;;;;7316676;19;20350;-81
2021/11/18 23:13:18;;;;;;;3.80;3.40;;;7.70;99.90;;;;;;7409666;19;20365;-80
2021/11/18 23:16:36;;;;;;;5.22;3.47;;;7.80;99.90;;;;;;7420894;19;20316;-81
2021/11/18 23:19:18;;;;;;;5.30;3.28;;;7.80;99.90;;;;;;7422230;19;20332;-80
2021/11/18 23:25:53;;;;;;;4.00;3.47;;;7.80;99.90;;;;;;7430293;19;20345;-82
2021/11/18 23:32:13;;;;;;;6.22;3.97;;;7.90;99.90;;;;;;7419001;19;20327;-81
2021/11/18 23:34:52;;;;;;;7.40;3.88;;;8.00;99.90;;;;;;7432456;19;20347;-81
2021/11/18 23:40:38;;;;;;;5.13;3.00;;;8.00;99.90;;;;;;7426886;19;20756;-81
2021/11/18 23:43:04;;;;;;;4.13;2.70;;;7.90;99.90;;;;;;7404478;19;20413;-81
2021/11/18 23:46:00;;;;;;;4.97;3.25;;;7.90;99.90;;;;;;7316766;19;20400;-81
2021/11/18 23:48:36;;;;;;;3.83;3.28;;;8.00;99.90;;;;;;7414658;19;20403;-80
2021/11/18 23:51:26;;;;;;;5.60;3.37;;;8.00;99.90;;;;;;7410054;19;20325;-81
2021/11/18 23:54:06;;;;;;;4.17;3.30;;;7.90;99.90;;;;;;7414104;19;20361;-80
2021/11/18 23:56:59;;;;;;;6.47;3.70;;;7.90;99.90;;;;;;7418028;19;20333;-81
